createdAt,value
2018-03-08T00:01:11.634Z,99670.22
2018-03-08T00:03:39.901Z,99663.78
2018-03-08T00:06:08.586Z,99667.91
2018-03-08T00:08:36.967Z,99673.27
2018-03-08T00:11:05.673Z,99673.14
2018-03-08T00:13:33.979Z,99680.34
2018-03-08T00:16:02.386Z,99677.21
2018-03-08T00:18:30.944Z,99681.44
2018-03-08T00:20:59.248Z,99675.31
2018-03-08T00:23:27.683Z,99687.29
2018-03-08T00:25:56.153Z,99683.89
2018-03-08T00:28:24.470Z,99679.20
2018-03-08T00:30:52.792Z,99687.91
2018-03-08T00:33:21.541Z,99690.36
2018-03-08T00:35:49.888Z,99695.66
2018-03-08T00:38:18.133Z,99698.98
2018-03-08T00:40:46.366Z,99700.55
2018-03-08T00:43:14.595Z,99697.19
2018-03-08T00:45:43.167Z,99709.52
2018-03-08T00:48:11.767Z,99705.03
2018-03-08T00:50:40.226Z,99714.89
2018-03-08T00:53:08.720Z,99707.77
2018-03-08T00:55:37.363Z,99715.45
2018-03-08T00:58:05.780Z,99716.00
2018-03-08T01:00:34.025Z,99719.83
2018-03-08T01:03:02.368Z,99720.28
2018-03-08T01:05:30.926Z,99727.95
2018-03-08T01:07:59.106Z,99726.40
2018-03-08T01:10:28.144Z,99731.53
2018-03-08T01:12:56.469Z,99735.02
2018-03-08T01:15:24.848Z,99734.91
2018-03-08T01:17:53.002Z,99734.28
2018-03-08T01:20:21.472Z,99737.98
2018-03-08T01:22:50.006Z,99731.39
2018-03-08T01:25:18.204Z,99739.45
2018-03-08T01:27:46.730Z,99739.09
2018-03-08T01:30:15.018Z,99743.14
2018-03-08T01:32:43.358Z,99737.18
2018-03-08T01:35:11.586Z,99745.50
2018-03-08T01:37:40.060Z,99743.67
2018-03-08T01:40:08.503Z,99746.95
2018-03-08T01:42:36.818Z,99745.24
2018-03-08T01:45:05.444Z,99746.30
2018-03-08T01:47:33.935Z,99747.41
2018-03-08T01:50:02.201Z,99744.17
2018-03-08T01:52:30.572Z,99740.80
2018-03-08T01:54:59.284Z,99743.01
2018-03-08T01:57:27.815Z,99744.82
2018-03-08T01:59:56.103Z,99745.40
2018-03-08T02:02:24.889Z,99746.03
2018-03-08T02:04:53.370Z,99744.20
2018-03-08T02:07:21.637Z,99748.83
2018-03-08T02:09:50.140Z,99751.34
2018-03-08T02:12:18.563Z,99754.14
2018-03-08T02:14:46.932Z,99750.53
2018-03-08T02:17:15.154Z,99755.81
2018-03-08T02:19:44.003Z,99748.17
2018-03-08T02:22:12.388Z,99759.44
2018-03-08T02:24:40.617Z,99752.75
2018-03-08T02:27:09.143Z,99753.30
2018-03-08T02:29:37.394Z,99758.82
2018-03-08T02:32:05.746Z,99758.78
2018-03-08T02:34:33.893Z,99765.50
2018-03-08T02:37:02.182Z,99762.66
2018-03-08T02:39:30.403Z,99764.83
2018-03-08T02:41:58.679Z,99761.31
2018-03-08T02:44:27.172Z,99767.69
2018-03-08T02:46:55.375Z,99765.55
2018-03-08T02:49:23.918Z,99759.83
2018-03-08T02:51:52.400Z,99759.17
2018-03-08T02:54:20.842Z,99765.50
2018-03-08T02:56:49.058Z,99758.34
2018-03-08T02:59:17.461Z,99760.86
2018-03-08T03:01:45.708Z,99769.56
2018-03-08T03:04:13.876Z,99769.86
2018-03-08T03:06:42.157Z,99773.52
2018-03-08T03:09:10.512Z,99774.28
2018-03-08T03:11:38.745Z,99771.44
2018-03-08T03:14:07.039Z,99775.14
2018-03-08T03:16:35.434Z,99766.39
2018-03-08T03:19:03.818Z,99768.53
2018-03-08T03:21:32.078Z,99772.83
2018-03-08T03:24:00.870Z,99769.75
2018-03-08T03:26:29.975Z,99767.04
2018-03-08T03:28:58.215Z,99770.47
2018-03-08T03:31:26.650Z,99767.95
2018-03-08T03:33:55.096Z,99771.77
2018-03-08T03:36:23.387Z,99772.46
2018-03-08T03:38:52.323Z,99769.73
2018-03-08T03:41:20.900Z,99780.41
2018-03-08T03:43:49.354Z,99773.36
2018-03-08T03:46:17.994Z,99776.75
2018-03-08T03:48:46.620Z,99775.30
2018-03-08T03:51:15.065Z,99777.23
2018-03-08T03:53:43.671Z,99781.29
2018-03-08T03:56:12.432Z,99783.70
2018-03-08T03:58:40.656Z,99794.89
2018-03-08T04:01:09.322Z,99787.03
2018-03-08T04:03:37.616Z,99784.72
2018-03-08T04:06:06.641Z,99788.81
2018-03-08T04:08:34.774Z,99788.51
2018-03-08T04:11:03.356Z,99791.57
2018-03-08T04:13:32.357Z,99793.96
2018-03-08T04:16:00.857Z,99794.99
2018-03-08T04:18:29.256Z,99793.09
2018-03-08T04:20:58.007Z,99792.17
2018-03-08T04:23:26.515Z,99791.40
2018-03-08T04:25:54.645Z,99785.20
2018-03-08T04:28:23.248Z,99778.77
2018-03-08T04:30:51.987Z,99787.72
2018-03-08T04:33:20.835Z,99795.30
2018-03-08T04:35:49.455Z,99789.25
2018-03-08T04:38:17.746Z,99790.67
2018-03-08T04:40:45.985Z,99779.81
2018-03-08T04:43:14.185Z,99789.30
2018-03-08T04:45:42.467Z,99784.18
2018-03-08T04:48:13.200Z,99788.59
2018-03-08T04:50:42.489Z,99786.47
2018-03-08T04:53:12.586Z,99787.13
2018-03-08T04:55:41.032Z,99790.25
2018-03-08T04:58:09.530Z,99790.03
2018-03-08T05:00:38.248Z,99791.84
2018-03-08T05:03:06.885Z,99790.39
2018-03-08T05:05:35.119Z,99795.36
2018-03-08T05:08:03.944Z,99807.55
2018-03-08T05:10:32.175Z,99807.45
2018-03-08T05:13:00.694Z,99798.83
2018-03-08T05:15:29.134Z,99805.55
2018-03-08T05:17:57.326Z,99804.78
2018-03-08T05:20:26.248Z,99804.11
2018-03-08T05:22:55.210Z,99807.84
2018-03-08T05:25:23.666Z,99804.44
2018-03-08T05:27:52.878Z,99803.09
2018-03-08T05:30:21.044Z,99802.44
2018-03-08T05:32:49.164Z,99805.70
2018-03-08T05:35:17.275Z,99808.71
2018-03-08T05:37:46.440Z,99808.58
2018-03-08T05:40:14.950Z,99809.83
2018-03-08T05:42:43.080Z,99815.17
2018-03-08T05:45:19.058Z,99810.19
2018-03-08T05:47:49.132Z,99812.69
2018-03-08T05:50:17.897Z,99817.97
2018-03-08T05:52:46.505Z,99819.44
2018-03-08T05:55:14.984Z,99821.17
2018-03-08T05:57:43.599Z,99823.97
2018-03-08T06:00:11.764Z,99826.44
2018-03-08T06:02:40.101Z,99840.52
2018-03-08T06:05:08.569Z,99838.31
2018-03-08T06:07:42.083Z,99843.76
2018-03-08T06:10:10.248Z,99842.03
2018-03-08T06:12:38.362Z,99838.31
2018-03-08T06:15:06.480Z,99831.56
2018-03-08T06:17:34.555Z,99828.94
2018-03-08T06:20:02.651Z,99821.33
2018-03-08T06:22:30.761Z,99822.58
2018-03-08T06:24:58.890Z,99828.51
2018-03-08T06:27:26.990Z,99825.50
2018-03-08T06:29:55.098Z,99830.91
2018-03-08T06:32:23.207Z,99824.66
2018-03-08T06:34:52.668Z,99831.92
2018-03-08T06:37:21.653Z,99825.66
2018-03-08T06:39:49.805Z,99822.38
2018-03-08T06:42:18.196Z,99826.90
2018-03-08T06:44:47.002Z,99818.31
2018-03-08T06:47:15.701Z,99828.13
2018-03-08T06:49:43.842Z,99820.95
2018-03-08T06:52:12.629Z,99822.77
2018-03-08T06:54:41.070Z,99823.80
2018-03-08T06:57:10.304Z,99825.87
2018-03-08T06:59:39.900Z,99822.94
2018-03-08T07:02:08.007Z,99823.19
2018-03-08T07:04:36.109Z,99823.14
2018-03-08T07:07:04.214Z,99821.11
2018-03-08T07:09:32.322Z,99811.19
2018-03-08T07:12:00.431Z,99818.75
2018-03-08T07:14:28.533Z,99825.22
2018-03-08T07:16:56.687Z,99829.30
2018-03-08T07:19:24.796Z,99825.09
2018-03-08T07:21:52.923Z,99822.04
2018-03-08T07:24:21.029Z,99811.60
2018-03-08T07:26:49.163Z,99822.42
2018-03-08T07:29:17.274Z,99819.92
2018-03-08T07:31:45.380Z,99816.89
2018-03-08T07:34:13.479Z,99820.51
2018-03-08T07:36:41.582Z,99819.57
2018-03-08T07:39:09.700Z,99819.98
2018-03-08T07:41:37.816Z,99823.98
2018-03-08T07:44:05.918Z,99814.28
2018-03-08T07:46:34.028Z,99820.72
2018-03-08T07:49:02.149Z,99812.73
2018-03-08T07:51:30.259Z,99807.69
2018-03-08T07:53:58.363Z,99803.73
2018-03-08T07:56:26.468Z,99803.03
2018-03-08T07:58:54.565Z,99795.72
2018-03-08T08:01:22.686Z,99790.42
2018-03-08T08:03:50.779Z,99793.21
2018-03-08T08:09:27.856Z,99791.27
2018-03-08T08:11:55.963Z,99788.45
2018-03-08T08:14:24.055Z,99792.27
2018-03-08T08:16:52.171Z,99783.47
2018-03-08T08:19:20.263Z,99779.16
2018-03-08T08:21:48.358Z,99780.53
2018-03-08T08:24:16.475Z,99779.02
2018-03-08T08:26:44.615Z,99769.64
2018-03-08T08:29:12.690Z,99773.21
2018-03-08T08:31:40.811Z,99776.70
2018-03-08T08:34:08.927Z,99777.42
2018-03-08T08:36:37.047Z,99772.17
2018-03-08T08:39:05.322Z,99770.31
2018-03-08T08:41:33.729Z,99764.27
2018-03-08T08:44:01.842Z,99764.83
2018-03-08T08:46:29.980Z,99770.83
2018-03-08T08:48:58.080Z,99769.08
2018-03-08T08:51:26.207Z,99764.02
2018-03-08T08:53:54.308Z,99755.56
2018-03-08T08:56:22.445Z,99752.69
2018-03-08T08:58:50.583Z,99738.70
2018-03-08T09:01:18.683Z,99733.72
2018-03-08T09:03:46.782Z,99736.63
2018-03-08T09:06:14.889Z,99735.87
2018-03-08T09:08:42.982Z,99726.91
2018-03-08T09:11:11.088Z,99739.63
2018-03-08T09:13:39.193Z,99747.77
2018-03-08T09:16:07.320Z,99738.26
2018-03-08T09:18:35.434Z,99740.40
2018-03-08T09:21:03.622Z,99736.56
2018-03-08T09:23:31.660Z,99738.28
2018-03-08T09:25:59.774Z,99730.19
2018-03-08T09:28:27.890Z,99728.40
2018-03-08T09:30:56.013Z,99719.80
2018-03-08T09:33:24.145Z,99717.56
2018-03-08T09:35:52.263Z,99718.14
2018-03-08T09:38:20.360Z,99716.11
2018-03-08T09:40:48.466Z,99712.59
2018-03-08T09:43:16.589Z,99717.56
2018-03-08T09:45:44.689Z,99701.08
2018-03-08T09:48:12.810Z,99707.12
2018-03-08T09:50:40.930Z,99701.10
2018-03-08T09:53:09.218Z,99683.07
2018-03-08T09:55:37.351Z,99678.03
2018-03-08T09:58:05.467Z,99676.78
2018-03-08T10:00:33.560Z,99676.09
2018-03-08T10:03:01.664Z,99674.89
2018-03-08T10:05:29.832Z,99677.78
2018-03-08T10:07:57.941Z,99675.88
2018-03-08T10:10:26.054Z,99673.34
2018-03-08T10:12:54.212Z,99674.61
2018-03-08T10:15:22.299Z,99672.02
2018-03-08T10:17:50.412Z,99654.97
2018-03-08T10:20:18.516Z,99658.59
2018-03-08T10:22:46.697Z,99646.70
2018-03-08T10:25:14.747Z,99651.34
2018-03-08T10:27:42.852Z,99657.01
2018-03-08T10:30:10.976Z,99660.23
2018-03-08T10:32:39.105Z,99652.83
2018-03-08T10:35:07.221Z,99643.63
2018-03-08T10:37:35.367Z,99647.38
2018-03-08T10:40:03.475Z,99649.89
2018-03-08T10:44:59.712Z,99644.27
2018-03-08T10:47:27.836Z,99644.78
2018-03-08T10:49:55.967Z,99642.07
2018-03-08T10:52:24.070Z,99636.02
2018-03-08T10:54:52.187Z,99641.91
2018-03-08T10:57:20.322Z,99641.53
2018-03-08T10:59:48.447Z,99629.29
2018-03-08T11:02:17.271Z,99614.77
2018-03-08T11:04:50.933Z,99610.81
2018-03-08T11:07:19.064Z,99606.02
2018-03-08T11:09:50.293Z,99612.53
2018-03-08T11:12:18.425Z,99613.70
2018-03-08T11:14:46.550Z,99605.44
2018-03-08T11:17:14.639Z,99611.95
2018-03-08T11:19:42.767Z,99605.40
2018-03-08T11:22:10.887Z,99598.44
2018-03-08T11:24:39.006Z,99595.66
2018-03-08T11:27:07.129Z,99592.22
2018-03-08T11:29:35.256Z,99590.72
2018-03-08T11:32:03.371Z,99587.91
2018-03-08T11:34:31.456Z,99586.10
2018-03-08T11:36:59.622Z,99583.66
2018-03-08T11:39:27.703Z,99578.42
2018-03-08T11:41:55.795Z,99572.59
2018-03-08T11:44:23.934Z,99572.21
2018-03-08T11:46:52.035Z,99562.02
2018-03-08T11:49:21.086Z,99566.71
2018-03-08T11:51:48.720Z,99552.44
2018-03-08T11:54:16.844Z,99565.28
2018-03-08T11:56:45.082Z,99550.48
2018-03-08T11:59:13.271Z,99542.22
2018-03-08T12:01:41.385Z,99534.46
2018-03-08T12:04:09.506Z,99539.66
2018-03-08T12:06:37.612Z,99553.72
2018-03-08T12:09:05.724Z,99551.08
2018-03-08T12:11:33.840Z,99561.98
2018-03-08T12:14:01.941Z,99555.69
2018-03-08T12:16:30.063Z,99557.24
2018-03-08T12:18:58.164Z,99552.78
2018-03-08T12:21:26.265Z,99560.20
2018-03-08T12:23:54.358Z,99569.80
2018-03-08T12:26:22.487Z,99556.88
2018-03-08T12:28:50.609Z,99568.57
2018-03-08T12:31:18.706Z,99569.84
2018-03-08T12:33:46.803Z,99569.17
2018-03-08T12:36:15.086Z,99569.55
2018-03-08T12:38:43.199Z,99560.02
2018-03-08T12:41:11.384Z,99553.80
2018-03-08T12:43:42.637Z,99559.91
2018-03-08T12:46:10.737Z,99563.41
2018-03-08T12:48:38.884Z,99568.84
2018-03-08T12:51:06.969Z,99566.15
2018-03-08T12:53:35.095Z,99554.69
2018-03-08T12:56:03.252Z,99554.10
2018-03-08T12:58:31.295Z,99551.86
2018-03-08T13:00:59.390Z,99542.57
2018-03-08T13:03:27.492Z,99550.59
2018-03-08T13:05:55.611Z,99542.80
2018-03-08T13:08:23.717Z,99543.98
2018-03-08T13:10:51.851Z,99542.45
2018-03-08T13:13:20.290Z,99543.25
2018-03-08T13:15:48.387Z,99532.94
2018-03-08T13:18:16.494Z,99536.11
2018-03-08T13:20:44.599Z,99540.42
2018-03-08T13:23:12.707Z,99537.94
2018-03-08T13:25:40.819Z,99534.75
2018-03-08T13:28:08.931Z,99532.41
2018-03-08T13:30:37.047Z,99542.20
2018-03-08T13:33:05.143Z,99537.59
2018-03-08T13:35:33.243Z,99530.64
2018-03-08T13:38:01.477Z,99527.99
2018-03-08T13:40:29.561Z,99528.21
2018-03-08T13:42:57.678Z,99526.34
2018-03-08T13:45:25.780Z,99528.72
2018-03-08T13:47:53.922Z,99531.65
2018-03-08T13:50:22.021Z,99522.52
2018-03-08T13:52:50.144Z,99528.48
2018-03-08T13:55:18.237Z,99531.31
2018-03-08T13:57:46.366Z,99524.31
2018-03-08T14:00:14.429Z,99529.05
2018-03-08T14:02:42.534Z,99530.51
2018-03-08T14:05:10.636Z,99521.75
2018-03-08T14:07:38.738Z,99529.27
2018-03-08T14:10:06.873Z,99535.41
2018-03-08T14:12:35.005Z,99530.67
2018-03-08T14:15:03.096Z,99549.54
2018-03-08T14:17:31.220Z,99535.90
2018-03-08T14:19:59.316Z,99530.28
2018-03-08T14:22:27.429Z,99525.06
2018-03-08T14:24:55.556Z,99519.90
2018-03-08T14:27:23.652Z,99513.28
2018-03-08T14:29:51.755Z,99508.03
2018-03-08T14:32:19.869Z,99504.03
2018-03-08T14:34:47.971Z,99501.08
2018-03-08T14:37:16.098Z,99496.56
2018-03-08T14:39:44.199Z,99502.97
2018-03-08T14:42:12.306Z,99501.96
2018-03-08T14:44:40.410Z,99506.69
2018-03-08T14:47:08.525Z,99494.23
2018-03-08T14:49:36.637Z,99488.05
2018-03-08T14:52:04.749Z,99481.27
2018-03-08T14:54:32.869Z,99477.73
2018-03-08T14:57:01.002Z,99468.11
2018-03-08T14:59:29.110Z,99452.39
2018-03-08T15:01:57.230Z,99443.94
2018-03-08T15:04:25.321Z,99438.88
2018-03-08T15:06:53.441Z,99434.33
2018-03-08T15:09:21.538Z,99431.60
2018-03-08T15:11:49.640Z,99437.95
2018-03-08T15:14:17.748Z,99445.11
2018-03-08T15:16:45.858Z,99438.66
2018-03-08T15:19:13.973Z,99446.89
2018-03-08T15:21:42.980Z,99449.47
2018-03-08T15:24:11.098Z,99447.69
2018-03-08T15:26:39.223Z,99447.62
2018-03-08T15:29:07.319Z,99444.31
2018-03-08T15:31:35.481Z,99445.70
2018-03-08T15:34:03.595Z,99459.75
2018-03-08T15:36:31.712Z,99448.59
2018-03-08T15:38:59.814Z,99455.78
2018-03-08T15:41:27.900Z,99448.73
2018-03-08T15:43:56.027Z,99446.52
2018-03-08T15:46:24.152Z,99462.41
2018-03-08T15:48:52.248Z,99458.67
2018-03-08T15:51:20.371Z,99475.95
2018-03-08T15:53:48.480Z,99475.67
2018-03-08T15:56:16.592Z,99473.85
2018-03-08T15:58:44.685Z,99476.31
2018-03-08T16:01:12.792Z,99475.02
2018-03-08T16:03:40.898Z,99473.75
2018-03-08T16:06:12.699Z,99483.77
2018-03-08T16:08:52.684Z,99494.32
2018-03-08T16:11:20.793Z,99496.78
2018-03-08T16:13:48.905Z,99494.81
2018-03-08T16:16:17.029Z,99506.08
2018-03-08T16:18:46.020Z,99516.67
2018-03-08T16:21:14.143Z,99519.26
2018-03-08T16:23:42.270Z,99517.30
2018-03-08T16:26:10.357Z,99506.33
2018-03-08T16:28:38.460Z,99509.82
2018-03-08T16:31:06.570Z,99516.50
2018-03-08T16:33:34.696Z,99515.26
2018-03-08T16:36:02.854Z,99520.13
2018-03-08T16:38:30.934Z,99520.05
2018-03-08T16:40:59.044Z,99518.49
2018-03-08T16:43:27.160Z,99527.05
2018-03-08T16:45:55.276Z,99521.52
2018-03-08T16:48:23.437Z,99529.06
2018-03-08T16:50:51.510Z,99533.53
2018-03-08T16:53:19.656Z,99526.12
2018-03-08T16:55:47.729Z,99523.00
2018-03-08T16:58:15.848Z,99516.59
2018-03-08T17:00:43.965Z,99526.41
2018-03-08T17:03:12.067Z,99522.66
2018-03-08T17:05:40.192Z,99525.91
2018-03-08T17:08:08.355Z,99532.04
2018-03-08T17:10:36.448Z,99527.48
2018-03-08T17:13:04.577Z,99524.06
2018-03-08T17:15:32.725Z,99533.88
2018-03-08T17:18:00.865Z,99535.41
2018-03-08T17:20:28.968Z,99533.61
2018-03-08T17:22:57.065Z,99534.82
2018-03-08T17:25:25.185Z,99535.95
2018-03-08T17:27:53.282Z,99544.31
2018-03-08T17:30:21.394Z,99549.03
2018-03-08T17:32:49.503Z,99550.31
2018-03-08T17:35:17.622Z,99555.25
2018-03-08T17:37:45.729Z,99562.92
2018-03-08T17:40:13.821Z,99559.20
2018-03-08T17:42:41.931Z,99567.53
2018-03-08T17:45:10.039Z,99566.14
2018-03-08T17:47:38.145Z,99571.12
2018-03-08T17:50:06.264Z,99573.00
2018-03-08T17:52:35.876Z,99574.81
2018-03-08T17:55:04.408Z,99570.50
2018-03-08T17:57:34.212Z,99572.02
2018-03-08T18:00:03.184Z,99584.17
2018-03-08T18:02:32.315Z,99587.94
2018-03-08T18:05:00.794Z,99583.73
2018-03-08T18:07:29.327Z,99594.75
2018-03-08T18:09:57.941Z,99593.56
2018-03-08T18:12:26.204Z,99586.59
2018-03-08T18:14:54.865Z,99601.62
2018-03-08T18:17:23.600Z,99597.63
2018-03-08T18:19:52.069Z,99591.49
2018-03-08T18:22:20.726Z,99597.30
2018-03-08T18:24:48.981Z,99594.77
2018-03-08T18:27:17.375Z,99593.92
2018-03-08T18:29:45.793Z,99606.77
2018-03-08T18:32:14.569Z,99610.80
2018-03-08T18:34:43.004Z,99593.05
2018-03-08T18:37:11.679Z,99612.86
2018-03-08T18:39:40.281Z,99641.75
2018-03-08T18:42:08.829Z,99667.95
2018-03-08T18:44:37.184Z,99717.25
2018-03-08T18:47:06.503Z,99759.58
2018-03-08T18:49:36.083Z,99743.64
2018-03-08T18:52:04.727Z,99740.34
2018-03-08T18:54:33.200Z,99755.67
2018-03-08T18:57:01.547Z,99720.15
2018-03-08T18:59:30.243Z,99739.67
2018-03-08T19:01:58.566Z,99735.10
2018-03-08T19:04:28.346Z,99720.34
2018-03-08T19:06:57.179Z,99724.64
2018-03-08T19:09:26.441Z,99722.66
2018-03-08T19:11:54.919Z,99728.66
2018-03-08T19:14:23.154Z,99737.56
2018-03-08T19:16:51.395Z,99732.78
2018-03-08T19:19:20.188Z,99742.13
2018-03-08T19:21:48.648Z,99750.41
2018-03-08T19:24:19.717Z,99755.48
2018-03-08T19:26:49.036Z,99758.27
2018-03-08T19:29:18.471Z,99768.53
2018-03-08T19:31:47.353Z,99770.81
2018-03-08T19:34:15.951Z,99773.13
2018-03-08T19:36:46.752Z,99780.55
2018-03-08T19:39:15.533Z,99779.41
2018-03-08T19:41:43.922Z,99782.06
2018-03-08T19:44:12.269Z,99784.12
2018-03-08T19:46:40.746Z,99792.11
2018-03-08T19:49:08.876Z,99794.39
2018-03-08T19:51:37.399Z,99797.86
2018-03-08T19:54:06.159Z,99799.01
2018-03-08T19:56:35.253Z,99804.17
2018-03-08T19:59:03.973Z,99812.33
2018-03-08T20:01:32.764Z,99810.33
2018-03-08T20:04:01.781Z,99813.80
2018-03-08T20:06:31.922Z,99813.45
2018-03-08T20:09:00.573Z,99822.03
2018-03-08T20:11:28.827Z,99824.56
2018-03-08T20:13:57.976Z,99824.63
2018-03-08T20:16:26.724Z,99837.42
2018-03-08T20:18:55.081Z,99837.52
2018-03-08T20:21:24.176Z,99841.26
2018-03-08T20:23:52.920Z,99840.81
2018-03-08T20:26:21.556Z,99841.03
2018-03-08T20:28:50.682Z,99852.62
2018-03-08T20:31:19.565Z,99853.42
2018-03-08T20:33:48.929Z,99860.22
2018-03-08T20:36:17.623Z,99863.86
2018-03-08T20:38:47.307Z,99869.42
2018-03-08T20:41:16.382Z,99865.77
2018-03-08T20:43:45.156Z,99874.56
2018-03-08T20:46:13.671Z,99875.69
2018-03-08T20:48:42.006Z,99874.42
2018-03-08T20:51:10.589Z,99878.27
2018-03-08T20:53:39.382Z,99884.47
2018-03-08T20:56:07.800Z,99886.13
2018-03-08T20:58:36.981Z,99891.67
2018-03-08T21:01:06.159Z,99899.77
2018-03-08T21:03:34.863Z,99894.43
2018-03-08T21:06:03.728Z,99897.45
2018-03-08T21:08:31.996Z,99897.67
2018-03-08T21:11:00.261Z,99898.44
2018-03-08T21:13:28.416Z,99898.33
2018-03-08T21:15:56.624Z,99901.47
2018-03-08T21:18:24.836Z,99908.24
2018-03-08T21:20:53.630Z,99915.48
2018-03-08T21:23:22.005Z,99917.98
2018-03-08T21:25:51.169Z,99925.12
2018-03-08T21:28:19.353Z,99922.45
2018-03-08T21:30:47.698Z,99929.37
2018-03-08T21:33:15.833Z,99937.59
2018-03-08T21:35:44.133Z,99936.94
2018-03-08T21:38:12.968Z,99945.25
2018-03-08T21:40:42.570Z,99941.72
2018-03-08T21:43:11.663Z,99948.47
2018-03-08T21:45:41.016Z,99948.13
2018-03-08T21:48:10.315Z,99949.53
2018-03-08T21:50:39.322Z,99960.14
2018-03-08T21:53:08.923Z,99961.23
2018-03-08T21:55:37.830Z,99965.34
2018-03-08T21:58:10.502Z,99968.03
2018-03-08T22:00:39.041Z,99969.97
2018-03-08T22:03:07.283Z,99973.16
2018-03-08T22:05:36.079Z,99970.58
2018-03-08T22:08:04.169Z,99978.28
2018-03-08T22:10:32.282Z,99977.69
2018-03-08T22:13:00.395Z,99980.42
2018-03-08T22:15:28.563Z,99979.00
2018-03-08T22:17:56.706Z,99991.33
2018-03-08T22:20:24.885Z,99988.55
2018-03-08T22:22:53.005Z,99987.95
2018-03-08T22:25:21.109Z,99997.30
2018-03-08T22:27:49.225Z,99998.02
2018-03-08T22:30:17.382Z,99994.01
2018-03-08T22:32:45.468Z,99996.05
2018-03-08T22:35:13.572Z,100002.41
2018-03-08T22:37:41.691Z,100007.24
2018-03-08T22:40:09.787Z,100005.08
2018-03-08T22:42:38.113Z,100001.30
2018-03-08T22:45:06.269Z,100006.80
2018-03-08T22:47:34.471Z,100008.09
2018-03-08T22:50:05.973Z,100009.80
2018-03-08T22:52:34.083Z,100007.05
2018-03-08T22:55:02.215Z,100007.15
2018-03-08T22:57:30.319Z,100010.33
2018-03-08T22:59:58.449Z,100018.55
2018-03-08T23:02:32.099Z,100020.00
2018-03-08T23:05:00.214Z,100013.53
2018-03-08T23:07:28.377Z,100020.19
2018-03-08T23:09:56.546Z,100024.11
2018-03-08T23:12:28.461Z,100022.15
2018-03-08T23:14:56.559Z,100032.09
2018-03-08T23:17:24.744Z,100025.91
2018-03-08T23:19:52.860Z,100033.92
2018-03-08T23:22:21.137Z,100034.03
2018-03-08T23:24:49.281Z,100038.36
2018-03-08T23:27:17.426Z,100039.48
2018-03-08T23:29:45.521Z,100041.45
2018-03-08T23:32:13.639Z,100038.36
2018-03-08T23:34:41.775Z,100047.91
2018-03-08T23:37:09.868Z,100046.56
2018-03-08T23:39:37.984Z,100047.81
2018-03-08T23:42:06.113Z,100048.00
2018-03-08T23:44:34.243Z,100057.23
2018-03-08T23:47:02.387Z,100057.75
2018-03-08T23:49:30.515Z,100052.62
2018-03-08T23:51:58.661Z,100066.16
2018-03-08T23:54:30.019Z,100069.05
2018-03-08T23:56:58.117Z,100067.39
2018-03-08T23:59:26.391Z,100067.70
